Time;durP1;ratioP1;P1;durP2;ratioP2;P2;SDS_P1;SDS_P2;PMS_P1;PMS_P2;Temp;Humidity;BMP_temperature;BMP_pressure;BME280_temperature;BME280_humidity;BME280_pressure;Samples;Min_cycle;Max_cycle;Signal;HPM_P1;HPM_P2
2022/12/25 00:00:40;;;;;;;54.35;18.83;;;6.50;99.90;;;;;;5035567;28;20040;-70
2022/12/25 00:03:07;;;;;;;51.35;17.88;;;6.50;99.90;;;;;;5058459;28;20137;-70
2022/12/25 00:05:33;;;;;;;55.60;17.65;;;6.60;99.90;;;;;;5049161;28;20044;-71
2022/12/25 00:07:58;;;;;;;47.30;17.60;;;6.60;99.90;;;;;;5039440;28;20047;-71
2022/12/25 00:10:24;;;;;;;63.20;17.60;;;6.60;99.90;;;;;;5055000;28;20123;-72
2022/12/25 00:12:50;;;;;;;45.38;16.95;;;6.60;99.90;;;;;;5048341;28;20131;-72
2022/12/25 00:15:16;;;;;;;52.13;16.98;;;6.70;99.90;;;;;;5035217;28;20049;-71
2022/12/25 00:17:41;;;;;;;49.60;18.20;;;6.70;99.90;;;;;;5049949;28;20560;-71
2022/12/25 00:20:08;;;;;;;57.25;17.60;;;6.80;99.90;;;;;;5034187;28;20053;-71
2022/12/25 00:22:33;;;;;;;51.95;16.65;;;6.80;99.90;;;;;;5059993;28;20049;-72
2022/12/25 00:24:59;;;;;;;53.28;17.35;;;6.80;99.90;;;;;;5070314;28;20066;-71
2022/12/25 00:27:25;;;;;;;58.35;17.48;;;7.00;99.90;;;;;;5054791;28;20056;-71
2022/12/25 00:29:50;;;;;;;52.15;16.98;;;7.00;99.90;;;;;;5066101;28;20070;-71
2022/12/25 00:32:16;;;;;;;47.75;16.05;;;7.00;99.90;;;;;;5062625;28;20124;-71
2022/12/25 00:34:42;;;;;;;58.33;17.40;;;7.00;99.90;;;;;;5058786;28;20044;-72
2022/12/25 00:37:07;;;;;;;47.72;16.10;;;7.00;99.90;;;;;;5051087;28;20049;-71
2022/12/25 00:39:33;;;;;;;56.70;18.08;;;7.00;99.90;;;;;;5079262;28;20064;-71
2022/12/25 00:44:43;;;;;;;58.03;18.60;;;7.20;99.90;;;;;;5083049;28;20112;-72
2022/12/25 00:47:09;;;;;;;46.65;15.25;;;7.00;99.90;;;;;;5053360;28;20053;-72
2022/12/25 00:49:34;;;;;;;55.97;17.38;;;7.00;99.90;;;;;;5053396;28;20120;-72
2022/12/25 00:52:00;;;;;;;50.70;16.55;;;7.00;99.90;;;;;;5065546;28;20045;-72
2022/12/25 00:54:26;;;;;;;51.53;16.42;;;7.00;99.90;;;;;;5047571;28;20121;-71
2022/12/25 00:56:52;;;;;;;52.17;17.20;;;7.10;99.90;;;;;;5046522;28;20080;-72
2022/12/25 00:59:18;;;;;;;55.15;17.58;;;7.00;99.90;;;;;;5046662;28;20059;-71
2022/12/25 01:01:43;;;;;;;53.63;18.02;;;7.00;99.90;;;;;;5046480;28;20053;-72
2022/12/25 01:04:10;;;;;;;51.53;16.00;;;7.10;99.90;;;;;;5095362;28;20253;-72
2022/12/25 01:06:36;;;;;;;49.83;16.27;;;6.90;99.90;;;;;;5072290;28;20037;-72
2022/12/25 01:11:47;;;;;;;57.08;17.15;;;6.90;99.90;;;;;;5065513;28;20041;-72
2022/12/25 01:14:13;;;;;;;56.72;16.52;;;7.00;99.90;;;;;;5047487;28;20049;-72
2022/12/25 01:16:38;;;;;;;52.42;17.20;;;7.00;99.90;;;;;;5046190;28;20048;-72
2022/12/25 01:19:04;;;;;;;51.60;17.38;;;7.20;99.90;;;;;;5050983;28;20049;-72
2022/12/25 01:21:30;;;;;;;51.83;16.40;;;7.00;99.90;;;;;;5049075;28;20433;-72
2022/12/25 01:23:56;;;;;;;52.65;17.15;;;7.00;99.90;;;;;;5052931;28;20048;-72
2022/12/25 01:26:23;;;;;;;57.08;17.23;;;7.00;99.90;;;;;;5070653;28;20049;-72
2022/12/25 01:28:50;;;;;;;54.10;17.65;;;7.00;99.90;;;;;;5064502;28;20101;-72
2022/12/25 01:31:18;;;;;;;54.15;16.83;;;7.00;99.90;;;;;;5057091;28;20053;-72
2022/12/25 01:33:44;;;;;;;44.15;15.98;;;7.10;99.90;;;;;;5049127;28;20049;-72
2022/12/25 01:36:36;;;;;;;55.50;17.25;;;7.10;99.90;;;;;;5067810;28;20084;-72
2022/12/25 01:39:02;;;;;;;47.33;17.35;;;7.10;99.90;;;;;;5059714;28;20526;-72
2022/12/25 01:41:28;;;;;;;54.40;16.80;;;6.90;99.90;;;;;;5075830;28;20055;-72
2022/12/25 01:43:58;;;;;;;46.92;16.92;;;6.90;99.90;;;;;;5057816;28;20048;-72
2022/12/25 01:46:24;;;;;;;50.50;16.23;;;7.10;99.90;;;;;;5054007;28;20052;-72
2022/12/25 01:48:52;;;;;;;52.85;16.50;;;7.10;99.90;;;;;;5057504;28;20455;-70
2022/12/25 01:51:43;;;;;;;56.88;17.02;;;7.00;99.90;;;;;;5074148;28;20053;-70
2022/12/25 01:54:17;;;;;;;46.72;17.58;;;7.10;99.90;;;;;;5058527;28;20044;-71
2022/12/25 01:56:45;;;;;;;53.53;17.20;;;7.20;99.90;;;;;;5067730;28;20037;-71
2022/12/25 01:59:15;;;;;;;49.03;16.98;;;7.20;99.90;;;;;;5078306;28;20053;-72
2022/12/25 02:01:40;;;;;;;48.50;16.48;;;7.10;99.90;;;;;;5076213;28;20037;-72
2022/12/25 02:04:16;;;;;;;46.15;15.75;;;7.10;99.90;;;;;;5081984;28;20036;-72
2022/12/25 02:06:41;;;;;;;54.63;17.42;;;7.10;99.90;;;;;;5063659;28;20049;-72
2022/12/25 02:09:07;;;;;;;52.40;17.20;;;7.20;99.90;;;;;;5063915;28;20066;-72
2022/12/25 02:14:17;;;;;;;47.97;17.75;;;7.30;99.90;;;;;;5068231;28;20116;-72
2022/12/25 02:16:47;;;;;;;48.25;16.48;;;7.30;99.90;;;;;;5064614;28;20076;-72
2022/12/25 02:19:41;;;;;;;50.75;16.50;;;7.20;99.90;;;;;;5053304;28;20048;-72
2022/12/25 02:22:28;;;;;;;53.97;17.30;;;7.30;99.90;;;;;;5035797;28;20055;-72
2022/12/25 02:25:20;;;;;;;47.85;18.25;;;7.40;99.90;;;;;;5075187;28;20060;-72
2022/12/25 02:28:18;;;;;;;43.58;16.48;;;7.30;99.90;;;;;;5075772;28;20041;-72
2022/12/25 02:30:52;;;;;;;47.63;17.63;;;7.30;99.90;;;;;;5087696;28;20124;-72
2022/12/25 02:34:02;;;;;;;45.10;17.50;;;7.20;99.90;;;;;;5086993;28;20048;-72
2022/12/25 02:36:45;;;;;;;51.05;17.33;;;7.40;99.90;;;;;;5064632;28;20079;-72
2022/12/25 03:06:41;;;;;;;48.80;16.13;;;7.40;99.90;;;;;;5068124;28;20052;-72
2022/12/25 03:07:29;;;;;;;47.60;15.27;;;7.70;99.90;;;;;;5068784;28;20095;-72
2022/12/25 03:12:46;;;;;;;39.65;14.35;;;7.70;99.90;;;;;;5062980;28;20056;-72
2022/12/25 03:18:00;;;;;;;42.75;14.90;;;7.60;99.90;;;;;;5057070;28;20107;-72
2022/12/25 03:28:49;;;;;;;38.15;14.98;;;7.90;99.90;;;;;;5050418;28;20493;-72
2022/12/25 03:31:27;;;;;;;39.40;14.93;;;7.80;99.90;;;;;;5075512;28;20063;-71
2022/12/25 04:36:13;;;;;;;47.65;17.75;;;7.60;99.90;;;;;;5005466;28;20057;-74
2022/12/25 04:38:39;;;;;;;49.40;17.83;;;7.70;99.90;;;;;;5041085;28;20110;-74
2022/12/25 04:41:07;;;;;;;56.78;19.83;;;7.90;99.90;;;;;;5042086;28;20044;-72
2022/12/25 04:43:33;;;;;;;54.90;19.95;;;7.80;99.90;;;;;;5021770;28;20076;-71
2022/12/25 04:46:00;;;;;;;67.00;20.40;;;7.80;99.90;;;;;;4984937;28;20526;-75
2022/12/25 04:48:26;;;;;;;58.92;20.50;;;7.80;99.90;;;;;;5004939;28;20052;-77
2022/12/25 04:50:52;;;;;;;50.97;18.52;;;7.90;99.90;;;;;;5005100;28;20139;-75
2022/12/25 04:53:19;;;;;;;52.38;18.77;;;7.90;99.90;;;;;;4996842;28;20113;-75
2022/12/25 04:55:44;;;;;;;51.28;20.08;;;7.80;99.90;;;;;;5005326;28;20037;-75
2022/12/25 04:58:10;;;;;;;56.33;19.58;;;7.90;99.90;;;;;;5005402;28;20060;-75
2022/12/25 05:00:36;;;;;;;63.22;22.27;;;8.00;99.90;;;;;;5006324;28;20065;-75
2022/12/25 05:03:02;;;;;;;61.90;20.83;;;8.00;99.90;;;;;;5005125;28;20066;-75
2022/12/25 05:05:28;;;;;;;57.70;21.48;;;8.10;99.90;;;;;;5005181;28;20181;-75
2022/12/25 05:07:53;;;;;;;54.30;20.25;;;7.90;99.90;;;;;;5005060;28;20438;-75
2022/12/25 05:10:19;;;;;;;61.22;20.80;;;8.00;99.90;;;;;;5030946;28;20056;-75
2022/12/25 05:12:45;;;;;;;60.85;22.48;;;8.00;99.90;;;;;;5047378;28;20045;-75
2022/12/25 05:15:10;;;;;;;57.25;21.63;;;8.10;99.90;;;;;;5047542;28;20049;-75
2022/12/25 05:17:36;;;;;;;63.30;22.25;;;8.10;99.90;;;;;;5047297;28;20045;-75
2022/12/25 05:20:04;;;;;;;62.90;23.20;;;8.00;99.90;;;;;;5049223;28;20075;-75
2022/12/25 05:22:29;;;;;;;66.30;22.35;;;8.20;99.90;;;;;;5046127;28;20084;-75
2022/12/25 05:24:55;;;;;;;68.03;23.00;;;8.20;99.90;;;;;;5045600;28;20044;-75
2022/12/25 05:27:21;;;;;;;60.58;22.88;;;8.30;99.90;;;;;;5047497;28;20045;-75
2022/12/25 05:29:47;;;;;;;55.08;21.85;;;8.10;99.90;;;;;;5064298;28;20062;-75
2022/12/25 05:32:12;;;;;;;67.05;22.80;;;8.20;99.90;;;;;;5058355;28;20060;-75
2022/12/25 05:34:38;;;;;;;71.43;22.23;;;8.20;99.90;;;;;;5047203;28;20048;-73
2022/12/25 05:37:04;;;;;;;64.25;22.52;;;8.30;99.90;;;;;;5050210;28;20048;-75
2022/12/25 05:39:29;;;;;;;69.78;22.58;;;8.30;99.90;;;;;;5046234;28;20049;-74
2022/12/25 05:41:55;;;;;;;65.72;23.45;;;8.20;99.90;;;;;;5029863;28;20048;-75
2022/12/25 05:44:21;;;;;;;61.47;23.35;;;8.40;99.90;;;;;;5035677;28;20048;-75
2022/12/25 05:46:47;;;;;;;55.65;22.27;;;8.30;99.90;;;;;;5069219;28;20055;-75
2022/12/25 05:49:12;;;;;;;58.55;22.52;;;8.50;99.90;;;;;;5072890;28;20044;-74
2022/12/25 05:51:38;;;;;;;66.05;23.15;;;8.50;99.90;;;;;;5086653;28;20044;-75
2022/12/25 05:54:04;;;;;;;56.85;23.65;;;8.50;99.90;;;;;;5068232;28;20052;-75
2022/12/25 05:56:29;;;;;;;62.72;24.65;;;8.60;99.90;;;;;;5088325;28;20052;-75
2022/12/25 05:58:55;;;;;;;60.08;23.88;;;8.40;99.90;;;;;;5056674;28;20084;-75
2022/12/25 06:01:24;;;;;;;63.25;24.98;;;8.50;99.90;;;;;;5070427;28;20145;-75
2022/12/25 06:03:50;;;;;;;64.68;23.02;;;8.60;99.90;;;;;;5058593;28;20053;-75
2022/12/25 06:06:16;;;;;;;61.38;25.13;;;8.60;99.90;;;;;;5062649;28;20477;-75
2022/12/25 06:08:42;;;;;;;65.10;24.13;;;8.60;99.90;;;;;;5063752;28;20044;-75
2022/12/25 06:11:08;;;;;;;64.15;24.42;;;8.50;99.90;;;;;;5084521;28;20047;-75
2022/12/25 06:13:35;;;;;;;56.80;24.67;;;8.50;99.90;;;;;;5066444;28;20075;-75
2022/12/25 06:16:05;;;;;;;53.85;24.17;;;8.60;99.90;;;;;;5055158;28;20047;-75
2022/12/25 06:18:37;;;;;;;60.28;23.90;;;8.70;99.90;;;;;;5069238;28;20080;-75
2022/12/25 06:21:08;;;;;;;54.15;23.10;;;8.50;99.90;;;;;;5049352;28;20044;-75
2022/12/25 06:23:34;;;;;;;62.28;22.85;;;8.60;99.90;;;;;;5049009;28;20068;-75
2022/12/25 06:26:06;;;;;;;64.65;23.75;;;8.60;99.90;;;;;;5048091;28;20464;-75
2022/12/25 06:28:31;;;;;;;60.83;23.67;;;8.60;99.90;;;;;;5061838;28;20049;-75
2022/12/25 06:30:57;;;;;;;58.13;23.05;;;8.60;99.90;;;;;;5068477;28;20602;-75
2022/12/25 06:33:23;;;;;;;61.03;24.10;;;8.50;99.90;;;;;;5056554;28;20056;-75
2022/12/25 06:35:49;;;;;;;52.05;24.02;;;8.60;99.90;;;;;;5038332;28;20056;-75
2022/12/25 06:38:14;;;;;;;63.67;24.88;;;8.50;99.90;;;;;;5057331;28;20599;-75
2022/12/25 06:40:40;;;;;;;64.78;24.52;;;8.60;99.90;;;;;;5049798;28;20041;-75
2022/12/25 06:43:05;;;;;;;70.45;24.55;;;8.60;99.90;;;;;;5048507;28;20074;-75
2022/12/25 06:45:34;;;;;;;65.72;24.35;;;8.80;99.90;;;;;;5057157;28;20074;-75
2022/12/25 06:48:00;;;;;;;61.35;24.63;;;8.70;99.90;;;;;;5088813;28;20404;-75
2022/12/25 06:50:26;;;;;;;55.88;24.60;;;8.60;99.90;;;;;;5051468;28;20052;-73
2022/12/25 06:52:52;;;;;;;57.00;24.02;;;8.50;99.90;;;;;;5059095;28;20048;-75
2022/12/25 06:55:17;;;;;;;58.80;23.55;;;8.60;99.90;;;;;;5066589;28;20049;-76
2022/12/25 06:57:43;;;;;;;66.10;24.77;;;8.60;99.90;;;;;;5060140;28;20079;-72
2022/12/25 07:00:13;;;;;;;64.88;24.80;;;8.60;99.90;;;;;;5059863;28;20080;-70
2022/12/25 07:02:45;;;;;;;55.63;22.85;;;8.70;99.90;;;;;;5048060;28;20053;-70
2022/12/25 07:05:11;;;;;;;57.67;23.00;;;8.60;99.90;;;;;;5048547;28;20041;-69
2022/12/25 07:07:37;;;;;;;58.17;24.02;;;8.70;99.90;;;;;;5052255;28;20056;-68
2022/12/25 07:10:02;;;;;;;57.85;23.67;;;8.60;99.90;;;;;;5061909;28;20049;-71
2022/12/25 07:12:28;;;;;;;57.67;23.08;;;8.60;99.90;;;;;;5059085;28;20071;-70
2022/12/25 07:14:54;;;;;;;56.60;22.52;;;8.60;99.90;;;;;;5064077;28;20102;-72
2022/12/25 07:17:21;;;;;;;49.80;22.77;;;8.70;99.90;;;;;;5064308;28;20520;-70
2022/12/25 07:19:47;;;;;;;52.22;22.52;;;8.70;99.90;;;;;;5062874;28;20041;-68
2022/12/25 07:22:14;;;;;;;49.88;22.88;;;8.70;99.90;;;;;;5062145;28;20079;-71
2022/12/25 07:24:40;;;;;;;55.42;22.75;;;8.70;99.90;;;;;;5051424;28;20071;-69
2022/12/25 07:27:05;;;;;;;49.60;21.13;;;8.60;99.90;;;;;;5061751;28;20045;-70
2022/12/25 07:29:31;;;;;;;43.28;21.30;;;8.80;99.90;;;;;;5062863;28;20221;-68
2022/12/25 07:31:57;;;;;;;49.58;20.58;;;8.50;99.90;;;;;;5054674;28;20045;-72
2022/12/25 07:34:23;;;;;;;41.25;20.40;;;8.50;99.90;;;;;;5055994;28;20170;-72
2022/12/25 07:36:49;;;;;;;49.42;21.58;;;8.50;99.90;;;;;;5045676;28;20075;-68
2022/12/25 07:39:15;;;;;;;52.72;21.17;;;8.70;99.90;;;;;;5063606;28;20049;-71
2022/12/25 07:41:42;;;;;;;47.53;19.77;;;8.50;99.90;;;;;;5083680;28;20041;-70
2022/12/25 07:44:07;;;;;;;38.47;18.58;;;8.60;99.90;;;;;;5064874;28;20044;-70
2022/12/25 07:46:33;;;;;;;41.03;19.42;;;8.60;99.90;;;;;;5063618;28;20087;-69
2022/12/25 07:48:59;;;;;;;36.40;18.42;;;8.60;99.90;;;;;;5051114;28;20104;-69
2022/12/25 07:51:28;;;;;;;32.58;17.30;;;8.70;99.90;;;;;;5054018;28;20045;-68
2022/12/25 07:53:55;;;;;;;37.50;17.30;;;8.70;99.90;;;;;;5078426;28;20052;-69
2022/12/25 07:56:20;;;;;;;36.00;17.23;;;8.60;99.90;;;;;;5052562;28;20060;-69
2022/12/25 07:58:47;;;;;;;33.53;16.83;;;8.70;99.90;;;;;;5042640;28;20494;-68
2022/12/25 08:01:16;;;;;;;37.30;16.45;;;8.80;99.90;;;;;;5055145;28;20076;-70
2022/12/25 08:03:43;;;;;;;32.80;16.00;;;8.70;99.90;;;;;;5054795;28;20084;-67
2022/12/25 08:06:10;;;;;;;34.38;15.18;;;8.80;99.90;;;;;;5076022;28;20057;-77
2022/12/25 08:08:37;;;;;;;33.20;14.65;;;8.80;99.90;;;;;;5064413;28;20052;-74
2022/12/25 08:11:05;;;;;;;30.83;14.80;;;8.90;99.90;;;;;;5079372;28;20049;-80
2022/12/25 08:13:33;;;;;;;32.25;13.98;;;8.80;99.90;;;;;;5053850;28;20471;-72
2022/12/25 08:16:01;;;;;;;28.40;13.80;;;8.70;99.90;;;;;;5061960;28;20045;-74
2022/12/25 08:18:28;;;;;;;25.77;12.80;;;8.70;99.90;;;;;;5069973;28;20045;-73
2022/12/25 08:20:54;;;;;;;27.95;13.73;;;8.90;99.90;;;;;;5074210;28;20052;-72
2022/12/25 08:23:20;;;;;;;34.90;12.98;;;8.80;99.90;;;;;;5057713;28;20196;-72
2022/12/25 08:25:46;;;;;;;28.58;12.68;;;8.90;99.90;;;;;;5060627;28;20089;-70
2022/12/25 08:28:11;;;;;;;26.52;13.48;;;8.90;99.90;;;;;;5076981;28;20068;-69
2022/12/25 08:30:40;;;;;;;25.60;12.80;;;8.90;99.90;;;;;;5042897;28;20040;-69
2022/12/25 08:33:06;;;;;;;27.30;12.32;;;8.90;99.90;;;;;;5075828;28;20059;-65
2022/12/25 08:35:35;;;;;;;25.73;12.40;;;8.90;99.90;;;;;;5074094;28;20041;-65
2022/12/25 08:38:01;;;;;;;26.58;11.90;;;8.90;99.90;;;;;;5073317;28;20102;-64
2022/12/25 08:40:27;;;;;;;26.80;12.85;;;8.70;99.90;;;;;;5055985;28;20049;-64
2022/12/25 08:42:56;;;;;;;24.55;11.70;;;8.90;99.90;;;;;;5073382;28;20050;-73
2022/12/25 08:45:22;;;;;;;26.08;11.82;;;8.80;99.90;;;;;;5058273;28;20049;-68
2022/12/25 08:47:53;;;;;;;26.70;11.15;;;8.90;99.90;;;;;;5078601;28;20080;-66
2022/12/25 08:50:19;;;;;;;25.50;11.60;;;8.90;99.90;;;;;;5049283;28;20040;-68
2022/12/25 08:52:44;;;;;;;19.98;11.13;;;8.90;99.90;;;;;;5064888;28;20041;-69
2022/12/25 08:55:10;;;;;;;29.83;12.68;;;8.90;99.90;;;;;;5077467;28;20045;-66
2022/12/25 08:57:36;;;;;;;25.00;12.40;;;8.90;99.90;;;;;;5061562;28;20047;-66
2022/12/25 09:00:03;;;;;;;26.38;12.00;;;8.90;99.90;;;;;;5056514;28;20072;-63
2022/12/25 09:02:29;;;;;;;20.15;10.68;;;8.80;99.90;;;;;;5057893;28;20075;-63
2022/12/25 09:04:54;;;;;;;24.35;12.00;;;8.90;99.90;;;;;;5060144;28;20049;-64
2022/12/25 09:07:20;;;;;;;22.48;11.43;;;8.80;99.90;;;;;;5050267;28;20048;-63
2022/12/25 09:09:46;;;;;;;19.85;10.45;;;8.80;99.90;;;;;;5054277;28;20406;-63
2022/12/25 09:12:12;;;;;;;24.02;11.07;;;9.00;99.90;;;;;;5074966;28;20048;-65
2022/12/25 09:14:37;;;;;;;22.88;11.35;;;9.00;99.90;;;;;;5059699;28;20146;-65
2022/12/25 09:17:03;;;;;;;23.77;11.35;;;8.90;99.90;;;;;;5058581;28;20045;-65
2022/12/25 09:19:30;;;;;;;19.70;10.85;;;8.90;99.90;;;;;;5056262;28;20044;-64
2022/12/25 09:21:55;;;;;;;23.17;11.07;;;8.90;99.90;;;;;;5073512;28;20041;-63
2022/12/25 09:24:21;;;;;;;20.25;8.95;;;9.00;99.90;;;;;;5074563;28;20041;-64
2022/12/25 09:26:47;;;;;;;25.10;11.18;;;8.90;99.90;;;;;;5048909;28;20036;-64
2022/12/25 09:29:15;;;;;;;23.27;10.10;;;9.00;99.90;;;;;;5060887;28;20048;-64
2022/12/25 09:31:41;;;;;;;23.25;10.48;;;9.00;99.90;;;;;;5082209;28;20067;-63
2022/12/25 09:34:09;;;;;;;19.20;9.88;;;9.10;99.90;;;;;;5065215;28;20076;-64
2022/12/25 09:36:35;;;;;;;18.58;10.75;;;9.00;99.90;;;;;;5076490;28;20040;-63
2022/12/25 09:39:01;;;;;;;21.92;10.55;;;9.10;99.90;;;;;;5078755;28;20124;-63
2022/12/25 09:41:34;;;;;;;18.23;10.25;;;9.00;99.90;;;;;;5053836;28;20077;-63
2022/12/25 09:44:22;;;;;;;19.30;10.55;;;9.00;99.90;;;;;;5061888;28;20040;-61
2022/12/25 09:46:55;;;;;;;22.10;10.65;;;9.10;99.90;;;;;;5061794;28;20131;-64
2022/12/25 09:49:39;;;;;;;18.88;9.65;;;9.20;99.90;;;;;;5076388;28;20053;-60
2022/12/25 09:52:15;;;;;;;27.45;10.50;;;9.20;99.90;;;;;;5081026;28;20041;-60
2022/12/25 09:54:43;;;;;;;20.05;10.43;;;9.10;99.90;;;;;;5084422;28;20100;-61
2022/12/25 09:57:11;;;;;;;22.67;10.18;;;9.20;99.90;;;;;;5074134;28;20095;-65
2022/12/25 09:59:37;;;;;;;20.25;9.60;;;9.20;99.90;;;;;;5085442;28;20037;-59
2022/12/25 10:02:19;;;;;;;19.50;9.57;;;9.30;99.90;;;;;;5061579;28;20079;-59
2022/12/25 10:05:04;;;;;;;16.88;9.98;;;9.30;99.90;;;;;;5074656;28;20132;-59
2022/12/25 10:07:55;;;;;;;19.73;11.43;;;9.10;99.90;;;;;;5062024;28;20057;-59
2022/12/25 10:10:34;;;;;;;19.90;11.32;;;9.30;99.90;;;;;;5067881;28;20053;-65
2022/12/25 10:13:30;;;;;;;18.58;10.15;;;9.20;99.90;;;;;;5075008;28;20526;-62
2022/12/25 10:16:12;;;;;;;17.23;9.07;;;9.10;99.90;;;;;;5066483;28;20059;-60
2022/12/25 10:19:01;;;;;;;20.98;10.40;;;9.10;99.90;;;;;;5084471;28;20409;-61
2022/12/25 10:21:28;;;;;;;16.58;10.75;;;9.10;99.90;;;;;;5083229;28;20101;-63
2022/12/25 10:24:02;;;;;;;19.15;9.52;;;9.30;99.90;;;;;;5063600;28;20047;-64
2022/12/25 10:26:30;;;;;;;16.38;8.70;;;9.30;99.90;;;;;;5064918;28;20045;-66
2022/12/25 10:29:13;;;;;;;21.65;10.50;;;9.20;99.90;;;;;;5065276;28;20068;-66
2022/12/25 10:31:40;;;;;;;20.75;10.63;;;9.40;99.90;;;;;;5078049;28;20064;-63
2022/12/25 10:34:10;;;;;;;20.73;9.55;;;9.30;99.90;;;;;;5075155;28;20120;-66
2022/12/25 10:36:36;;;;;;;;;;;9.40;99.90;;;;;;5060136;28;20548;-66
2022/12/25 10:39:02;;;;;;;17.65;9.85;;;9.40;99.90;;;;;;5062667;28;19921;-66
2022/12/25 10:41:56;;;;;;;17.15;8.85;;;9.40;99.90;;;;;;5083231;28;20370;-66
2022/12/25 10:44:25;;;;;;;18.38;10.60;;;9.40;99.90;;;;;;5065818;28;20044;-66
2022/12/25 10:46:54;;;;;;;21.95;10.73;;;9.40;99.90;;;;;;5051364;28;20144;-66
2022/12/25 10:49:22;;;;;;;19.25;11.13;;;9.40;99.90;;;;;;5062821;28;20052;-66
2022/12/25 10:51:48;;;;;;;18.17;11.43;;;9.40;99.90;;;;;;5081075;28;20101;-66
2022/12/25 10:54:30;;;;;;;17.95;10.70;;;9.50;99.90;;;;;;5064555;28;20127;-66
2022/12/25 10:57:00;;;;;;;19.73;11.32;;;9.50;99.90;;;;;;5067382;28;20058;-66
2022/12/25 10:59:32;;;;;;;;;;;9.50;99.90;;;;;;5067156;28;20044;-66
2022/12/25 11:02:11;;;;;;;21.27;10.43;;;9.60;99.90;;;;;;5081948;28;19927;-66
2022/12/25 11:04:37;;;;;;;14.32;9.98;;;9.70;99.90;;;;;;5063689;28;20068;-66
2022/12/25 11:07:14;;;;;;;19.92;10.02;;;9.70;99.90;;;;;;5081577;28;20047;-66
2022/12/25 11:09:47;;;;;;;19.65;10.20;;;9.60;99.90;;;;;;5066894;28;20111;-66
2022/12/25 11:12:18;;;;;;;19.38;10.05;;;9.70;99.90;;;;;;5065201;28;20102;-66
2022/12/25 11:14:55;;;;;;;18.33;9.20;;;9.70;99.90;;;;;;5071833;28;20075;-66
2022/12/25 11:17:23;;;;;;;15.88;9.35;;;9.80;99.90;;;;;;5065182;28;20043;-66
2022/12/25 11:19:55;;;;;;;15.98;9.77;;;9.80;99.90;;;;;;5064217;28;20041;-68
2022/12/25 11:22:21;;;;;;;15.95;9.25;;;9.80;99.90;;;;;;5057687;28;20079;-67
2022/12/25 11:24:47;;;;;;;20.80;10.32;;;9.70;99.90;;;;;;5075962;28;20045;-66
2022/12/25 11:27:26;;;;;;;17.55;10.50;;;9.90;99.90;;;;;;5051617;28;20036;-66
2022/12/25 11:29:57;;;;;;;20.08;9.82;;;9.80;99.90;;;;;;5057866;28;20450;-67
2022/12/25 11:32:36;;;;;;;26.10;14.35;;;9.90;99.90;;;;;;5080595;28;20050;-67
2022/12/25 11:35:08;;;;;;;21.00;12.38;;;9.70;99.90;;;;;;5077068;28;20044;-67
2022/12/25 11:37:39;;;;;;;19.02;11.07;;;9.90;99.90;;;;;;5050661;28;20048;-66
2022/12/25 11:40:12;;;;;;;16.13;8.95;;;9.90;99.90;;;;;;5033934;28;20049;-67
2022/12/25 11:42:47;;;;;;;13.98;7.75;;;10.00;99.90;;;;;;5082569;28;20088;-66
2022/12/25 11:45:16;;;;;;;15.90;8.40;;;9.90;99.90;;;;;;5049841;28;20064;-66
2022/12/25 11:47:55;;;;;;;14.95;7.72;;;9.90;99.90;;;;;;5062972;28;20052;-67
2022/12/25 11:50:35;;;;;;;17.85;8.50;;;10.10;99.90;;;;;;5062123;28;20076;-66
2022/12/25 11:53:08;;;;;;;12.15;8.13;;;10.10;99.90;;;;;;5046761;28;20048;-66
2022/12/25 11:55:41;;;;;;;15.13;8.25;;;10.10;99.90;;;;;;5049187;28;20521;-67
2022/12/25 11:58:51;;;;;;;14.20;7.40;;;10.00;99.90;;;;;;5083637;28;20124;-67
2022/12/25 12:01:35;;;;;;;15.82;8.13;;;9.90;99.90;;;;;;5000224;28;20038;-67
2022/12/25 12:04:05;;;;;;;17.75;8.48;;;10.10;99.90;;;;;;4983849;28;20102;-66
2022/12/25 12:06:42;;;;;;;15.02;7.82;;;9.90;99.90;;;;;;4982953;28;20065;-66
2022/12/25 12:09:29;;;;;;;17.73;8.38;;;9.90;99.90;;;;;;4986002;28;20057;-68
2022/12/25 12:12:33;;;;;;;15.50;8.38;;;10.00;99.90;;;;;;4980632;28;20134;-67
2022/12/25 12:15:20;;;;;;;13.00;7.95;;;10.00;99.90;;;;;;4979838;28;20055;-66
2022/12/25 12:17:45;;;;;;;19.70;10.57;;;9.90;99.90;;;;;;4974661;28;20046;-65
2022/12/25 12:20:29;;;;;;;19.48;10.15;;;10.00;99.90;;;;;;4977488;28;20235;-64
2022/12/25 12:22:56;;;;;;;16.20;9.45;;;10.10;99.90;;;;;;4989200;28;20073;-69
2022/12/25 12:25:22;;;;;;;14.45;9.07;;;10.00;99.90;;;;;;4975668;28;20054;-70
2022/12/25 12:27:59;;;;;;;15.23;9.00;;;10.00;99.90;;;;;;4958203;28;20182;-66
2022/12/25 12:30:31;;;;;;;20.27;10.63;;;9.90;99.90;;;;;;5001660;28;20047;-66
2022/12/25 12:33:00;;;;;;;21.90;13.77;;;10.00;99.90;;;;;;5065749;28;20087;-66
2022/12/25 12:35:30;;;;;;;17.73;11.13;;;10.20;99.90;;;;;;5079128;28;20037;-66
2022/12/25 12:38:01;;;;;;;21.80;11.50;;;10.10;99.90;;;;;;5078323;28;20497;-65
2022/12/25 12:40:41;;;;;;;18.45;11.10;;;10.10;99.90;;;;;;5076765;28;20090;-65
2022/12/25 12:43:41;;;;;;;22.83;12.02;;;9.90;99.90;;;;;;5071963;28;20076;-66
2022/12/25 12:46:15;;;;;;;21.05;12.07;;;9.90;99.90;;;;;;5073519;28;20108;-67
2022/12/25 12:48:44;;;;;;;14.13;9.50;;;9.90;99.90;;;;;;5065568;28;20052;-68
2022/12/25 12:51:31;;;;;;;20.50;11.60;;;9.80;99.90;;;;;;5071068;28;20049;-66
2022/12/25 12:54:20;;;;;;;17.33;11.23;;;9.80;99.90;;;;;;5073257;28;20098;-66
2022/12/25 12:56:58;;;;;;;23.02;11.43;;;9.80;99.90;;;;;;5083815;28;20567;-68
2022/12/25 12:59:25;;;;;;;19.35;11.98;;;9.80;99.90;;;;;;5082989;28;20057;-66
2022/12/25 13:02:19;;;;;;;26.90;14.50;;;9.70;99.90;;;;;;5083685;28;20127;-67
2022/12/25 13:05:03;;;;;;;22.67;15.18;;;9.80;99.90;;;;;;5052491;28;20052;-70
2022/12/25 13:07:43;;;;;;;18.27;12.82;;;9.70;99.90;;;;;;5053922;28;20053;-68
2022/12/25 13:10:31;;;;;;;23.20;14.02;;;9.80;99.90;;;;;;5053287;28;20389;-69
2022/12/25 13:13:01;;;;;;;20.35;13.75;;;9.70;99.90;;;;;;5063589;28;20099;-68
2022/12/25 13:15:31;;;;;;;17.63;12.75;;;9.60;99.90;;;;;;5055896;28;20048;-68
2022/12/25 13:18:10;;;;;;;22.02;12.05;;;9.60;99.90;;;;;;5055916;28;20041;-68
2022/12/25 13:20:43;;;;;;;30.88;15.63;;;9.60;99.90;;;;;;5058665;28;20045;-68
2022/12/25 13:23:14;;;;;;;27.77;14.60;;;9.70;99.90;;;;;;5080166;28;20078;-68
2022/12/25 13:25:40;;;;;;;20.70;12.65;;;9.70;99.90;;;;;;5079012;28;20045;-69
2022/12/25 13:28:12;;;;;;;17.95;12.45;;;9.60;99.90;;;;;;5079482;28;20037;-68
2022/12/25 13:30:37;;;;;;;17.63;11.93;;;9.70;99.90;;;;;;5082065;28;20041;-68
2022/12/25 13:33:03;;;;;;;17.15;11.45;;;9.70;99.90;;;;;;5068273;28;20135;-68
2022/12/25 13:35:29;;;;;;;17.85;11.00;;;9.70;99.90;;;;;;5060445;28;20039;-68
2022/12/25 13:37:55;;;;;;;18.70;11.05;;;9.60;99.90;;;;;;5067621;28;20059;-68
2022/12/25 13:40:26;;;;;;;19.35;12.30;;;9.70;99.90;;;;;;5061949;28;20049;-68
2022/12/25 13:43:00;;;;;;;20.15;11.38;;;9.60;99.90;;;;;;5060920;28;20464;-68
2022/12/25 13:45:28;;;;;;;21.70;12.15;;;9.50;99.90;;;;;;5082930;28;20092;-67
2022/12/25 13:47:54;;;;;;;19.05;11.50;;;9.60;99.90;;;;;;5065877;28;20053;-68
2022/12/25 13:50:30;;;;;;;19.20;11.77;;;9.60;99.90;;;;;;5082235;28;20099;-67
2022/12/25 13:53:08;;;;;;;17.67;11.00;;;9.60;99.90;;;;;;5083378;28;20072;-67
2022/12/25 13:55:34;;;;;;;18.42;12.23;;;9.50;99.90;;;;;;5060135;28;20049;-68
2022/12/25 13:58:05;;;;;;;18.55;10.95;;;9.40;99.90;;;;;;5084733;28;20124;-68
2022/12/25 14:01:01;;;;;;;22.48;11.25;;;9.60;99.90;;;;;;5083651;28;20044;-67
2022/12/25 14:03:33;;;;;;;16.65;11.48;;;9.50;99.90;;;;;;5039975;28;20057;-67
2022/12/25 14:06:02;;;;;;;18.65;10.40;;;9.40;99.90;;;;;;5058780;28;20041;-67
2022/12/25 14:08:30;;;;;;;19.48;11.98;;;9.50;99.90;;;;;;5059427;28;20044;-67
2022/12/25 14:10:59;;;;;;;17.90;11.45;;;9.40;99.90;;;;;;5061446;28;20049;-67
2022/12/25 14:13:29;;;;;;;17.75;11.18;;;9.50;99.90;;;;;;5064332;28;20045;-67
2022/12/25 14:15:56;;;;;;;17.70;10.93;;;9.50;99.90;;;;;;5059843;28;20083;-67
2022/12/25 14:18:23;;;;;;;19.10;12.30;;;9.40;99.90;;;;;;5062890;28;20301;-67
2022/12/25 14:21:08;;;;;;;17.95;12.88;;;9.40;99.90;;;;;;5059616;28;20056;-67
2022/12/25 14:23:41;;;;;;;17.90;12.43;;;9.40;99.90;;;;;;5058884;28;20040;-67
2022/12/25 14:26:27;;;;;;;21.00;13.88;;;9.40;99.90;;;;;;5076427;28;20053;-67
2022/12/25 14:29:22;;;;;;;18.67;14.13;;;9.40;99.90;;;;;;5083523;28;20123;-70
2022/12/25 14:31:48;;;;;;;21.20;15.75;;;9.30;99.90;;;;;;5020426;28;20065;-70
2022/12/25 14:34:24;;;;;;;20.67;14.63;;;9.40;99.90;;;;;;5017741;28;20049;-70
2022/12/25 14:36:52;;;;;;;22.48;15.60;;;9.50;99.90;;;;;;5005290;28;20073;-70
2022/12/25 14:39:35;;;;;;;22.65;15.07;;;9.40;99.90;;;;;;5006479;28;20042;-70
2022/12/25 14:42:21;;;;;;;22.55;15.10;;;9.40;99.90;;;;;;5003594;28;20116;-70
2022/12/25 14:44:58;;;;;;;22.40;14.95;;;9.40;99.90;;;;;;5004043;28;20157;-72